Time;durP1;ratioP1;P1;durP2;ratioP2;P2;SDS_P1;SDS_P2;PMS_P1;PMS_P2;Temp;Humidity;BMP_temperature;BMP_pressure;BME280_temperature;BME280_humidity;BME280_pressure;Samples;Min_cycle;Max_cycle;Signal;HPM_P1;HPM_P2
2022/03/31 00:01:03;;;;;;;20.13;15.57;;;6.40;99.90;;;;;;10445798;28;20357;-69
2022/03/31 00:06:03;;;;;;;17.83;14.53;;;6.40;99.90;;;;;;10453106;28;20211;-68
2022/03/31 00:11:04;;;;;;;19.90;15.40;;;6.40;99.90;;;;;;10454456;28;20624;-69
2022/03/31 00:16:05;;;;;;;20.47;16.07;;;6.30;99.90;;;;;;10454120;28;20258;-69
2022/03/31 00:21:06;;;;;;;19.87;15.20;;;6.20;99.90;;;;;;10452751;28;20311;-69
2022/03/31 00:26:06;;;;;;;20.77;16.43;;;6.20;99.90;;;;;;10450862;28;20212;-69
2022/03/31 00:31:07;;;;;;;23.67;16.53;;;6.10;99.90;;;;;;10470762;28;20288;-70
2022/03/31 00:36:08;;;;;;;21.60;16.93;;;6.10;99.90;;;;;;10452752;28;20255;-69
2022/03/31 00:41:08;;;;;;;24.53;17.73;;;6.20;99.90;;;;;;10444867;28;20243;-69
2022/03/31 00:46:09;;;;;;;21.77;16.87;;;6.10;99.90;;;;;;10454517;28;20285;-69
2022/03/31 00:51:09;;;;;;;26.67;16.87;;;6.10;99.90;;;;;;10453227;28;20224;-69
2022/03/31 00:56:11;;;;;;;22.97;16.80;;;6.10;99.90;;;;;;10451829;28;20622;-69
2022/03/31 01:01:15;;;;;;;22.33;16.37;;;6.10;99.90;;;;;;10453868;28;20591;-69
2022/03/31 01:06:16;;;;;;;24.33;17.17;;;6.00;99.90;;;;;;10445321;28;20231;-70
2022/03/31 01:11:20;;;;;;;22.17;16.90;;;6.00;99.90;;;;;;10451389;28;20315;-68
2022/03/31 01:16:21;;;;;;;22.83;17.37;;;5.90;99.90;;;;;;10458804;28;20629;-68
2022/03/31 01:21:28;;;;;;;23.77;16.50;;;5.80;99.90;;;;;;10451888;28;20231;-71
2022/03/31 01:26:29;;;;;;;21.57;15.50;;;6.00;99.90;;;;;;10440743;28;20223;-70
2022/03/31 01:31:30;;;;;;;22.57;16.57;;;6.00;99.90;;;;;;10451487;28;20220;-69
2022/03/31 01:36:31;;;;;;;21.10;15.07;;;6.10;99.90;;;;;;10451372;28;20223;-69
2022/03/31 01:41:32;;;;;;;23.70;16.80;;;6.20;99.90;;;;;;10449357;28;20231;-69
2022/03/31 01:46:32;;;;;;;21.90;15.97;;;6.30;99.90;;;;;;10450934;28;20223;-69
2022/03/31 01:51:34;;;;;;;22.93;16.00;;;6.30;99.90;;;;;;10449837;28;20273;-70
2022/03/31 01:56:34;;;;;;;19.33;14.97;;;6.30;99.90;;;;;;10444547;28;20824;-69
2022/03/31 02:01:35;;;;;;;23.43;16.03;;;6.30;99.90;;;;;;10452284;28;20254;-68
2022/03/31 02:06:36;;;;;;;20.07;14.87;;;6.30;99.90;;;;;;10451357;28;20273;-69
2022/03/31 02:11:40;;;;;;;20.13;15.33;;;6.30;99.90;;;;;;10449642;28;20220;-71
2022/03/31 02:16:41;;;;;;;23.57;16.20;;;6.20;99.90;;;;;;10446873;28;20289;-69
2022/03/31 02:21:41;;;;;;;24.33;16.27;;;6.20;99.90;;;;;;10450612;28;20251;-69
2022/03/31 02:26:43;;;;;;;20.60;14.33;;;6.10;99.90;;;;;;10466411;28;20222;-68
2022/03/31 02:31:46;;;;;;;22.10;16.27;;;6.10;99.90;;;;;;10451420;28;20226;-69
2022/03/31 02:36:48;;;;;;;21.53;15.57;;;6.10;99.90;;;;;;10441411;28;20215;-69
2022/03/31 02:41:49;;;;;;;22.77;15.87;;;6.10;99.90;;;;;;10450949;28;20233;-69
2022/03/31 02:46:51;;;;;;;21.03;15.67;;;6.20;99.90;;;;;;10447699;28;20306;-70
2022/03/31 02:51:52;;;;;;;19.30;14.40;;;6.20;99.90;;;;;;10449800;28;20231;-70
2022/03/31 02:56:53;;;;;;;20.97;15.97;;;6.20;99.90;;;;;;10451699;28;20563;-70
2022/03/31 03:01:54;;;;;;;24.97;16.83;;;6.20;99.90;;;;;;10452444;28;20227;-70
2022/03/31 03:06:55;;;;;;;19.40;15.37;;;6.20;99.90;;;;;;10449346;28;20585;-69
2022/03/31 03:11:55;;;;;;;21.10;15.40;;;6.20;99.90;;;;;;10458654;28;20268;-70
2022/03/31 03:16:56;;;;;;;20.70;15.23;;;6.10;99.90;;;;;;10457427;28;20223;-69
2022/03/31 03:21:56;;;;;;;20.97;15.03;;;6.00;99.90;;;;;;10455110;28;20227;-70
2022/03/31 03:27:00;;;;;;;23.23;16.13;;;6.00;99.90;;;;;;10458328;28;20246;-69
2022/03/31 03:32:04;;;;;;;22.47;16.50;;;5.90;99.90;;;;;;10446269;28;20293;-71
2022/03/31 03:37:06;;;;;;;20.93;15.90;;;5.80;99.90;;;;;;10457742;28;20377;-70
2022/03/31 03:42:07;;;;;;;23.27;15.97;;;5.70;99.90;;;;;;10456887;28;20305;-70
2022/03/31 03:47:07;;;;;;;21.27;15.70;;;5.70;99.90;;;;;;10449348;28;20681;-69
2022/03/31 03:52:08;;;;;;;21.80;15.83;;;5.60;99.90;;;;;;10456614;28;20224;-69
2022/03/31 03:57:09;;;;;;;25.50;17.03;;;5.60;99.90;;;;;;10455907;28;20226;-69
2022/03/31 04:02:10;;;;;;;24.00;15.50;;;5.50;99.90;;;;;;10455003;28;20227;-69
2022/03/31 04:07:11;;;;;;;21.23;15.63;;;5.50;99.90;;;;;;10449998;28;20295;-68
2022/03/31 04:12:12;;;;;;;24.20;15.93;;;5.40;99.90;;;;;;10454376;28;20223;-68
2022/03/31 04:17:12;;;;;;;23.80;16.43;;;5.30;99.90;;;;;;10443325;28;20591;-69
2022/03/31 04:22:19;;;;;;;23.77;16.87;;;5.20;99.90;;;;;;10452352;28;20224;-69
2022/03/31 04:27:19;;;;;;;25.93;17.07;;;5.10;99.90;;;;;;10453824;28;20677;-70
2022/03/31 04:32:20;;;;;;;23.47;16.97;;;5.20;99.90;;;;;;10451338;28;20242;-70
2022/03/31 04:37:20;;;;;;;25.43;17.47;;;5.10;99.90;;;;;;10456067;28;20256;-70
2022/03/31 04:42:21;;;;;;;23.27;14.67;;;5.10;99.90;;;;;;10446593;28;20223;-70
2022/03/31 04:47:22;;;;;;;22.00;14.93;;;5.10;99.90;;;;;;10440201;28;20212;-71
2022/03/31 04:52:23;;;;;;;22.60;15.67;;;5.10;99.90;;;;;;10451322;28;20600;-71
2022/03/31 04:57:23;;;;;;;21.67;15.23;;;5.00;99.90;;;;;;10452410;28;20581;-69
2022/03/31 05:02:24;;;;;;;23.03;16.37;;;5.00;99.90;;;;;;10452332;28;20281;-70
2022/03/31 05:07:24;;;;;;;26.30;16.57;;;5.00;99.90;;;;;;10452244;28;20306;-71
2022/03/31 05:12:25;;;;;;;22.90;15.43;;;5.00;99.90;;;;;;10451631;28;20294;-68
2022/03/31 05:17:32;;;;;;;24.90;15.47;;;5.00;99.90;;;;;;10445233;28;20314;-69
2022/03/31 05:22:33;;;;;;;28.40;16.53;;;5.00;99.90;;;;;;10452170;28;20239;-70
2022/03/31 05:27:40;;;;;;;23.57;15.07;;;5.20;99.90;;;;;;10449148;28;20223;-69
2022/03/31 05:32:41;;;;;;;22.47;15.17;;;5.30;99.90;;;;;;10452711;28;20588;-68
2022/03/31 05:37:42;;;;;;;22.23;14.90;;;5.30;99.90;;;;;;10449841;28;20219;-70
2022/03/31 05:42:43;;;;;;;26.10;15.03;;;5.50;99.90;;;;;;10447482;28;20239;-69
2022/03/31 05:47:45;;;;;;;22.37;14.70;;;5.60;99.90;;;;;;10449351;28;20223;-69
2022/03/31 05:52:45;;;;;;;25.43;15.23;;;5.70;99.90;;;;;;10449765;28;20223;-69
2022/03/31 05:57:46;;;;;;;22.20;15.30;;;5.80;99.90;;;;;;10448874;28;20790;-69
2022/03/31 06:02:52;;;;;;;20.70;14.70;;;5.90;99.90;;;;;;10450258;28;20227;-70
2022/03/31 06:07:53;;;;;;;23.37;15.90;;;6.00;99.90;;;;;;10446420;28;20232;-69
2022/03/31 06:12:54;;;;;;;21.97;15.90;;;6.10;99.90;;;;;;10435974;28;20226;-69
2022/03/31 06:17:54;;;;;;;21.60;15.30;;;6.20;99.90;;;;;;10450925;28;20224;-69
2022/03/31 06:22:55;;;;;;;26.10;15.50;;;6.40;99.90;;;;;;10441573;28;20239;-70
2022/03/31 06:27:56;;;;;;;23.43;15.10;;;6.50;99.90;;;;;;10441296;28;20224;-68
2022/03/31 06:32:59;;;;;;;23.53;15.50;;;6.70;99.90;;;;;;10448255;28;20748;-69
2022/03/31 06:38:00;;;;;;;22.43;15.87;;;6.70;99.90;;;;;;10449443;28;20606;-69
2022/03/31 06:43:00;;;;;;;25.13;15.37;;;6.70;99.90;;;;;;10448632;28;20238;-69
2022/03/31 06:48:03;;;;;;;23.40;15.37;;;6.60;99.90;;;;;;10448823;28;20215;-69
2022/03/31 06:53:04;;;;;;;19.50;14.53;;;6.60;99.90;;;;;;10449215;28;20323;-69
2022/03/31 06:58:05;;;;;;;23.37;15.17;;;6.70;99.90;;;;;;10449220;28;20277;-69
2022/03/31 07:03:06;;;;;;;20.93;15.17;;;6.90;99.90;;;;;;10447187;28;21017;-69
2022/03/31 07:08:07;;;;;;;19.17;13.97;;;7.20;99.90;;;;;;10453593;28;20260;-69
2022/03/31 07:13:07;;;;;;;18.67;14.10;;;7.30;99.90;;;;;;10448363;28;20303;-69
2022/03/31 07:18:08;;;;;;;20.17;13.93;;;7.40;99.90;;;;;;10447082;28;20247;-69
2022/03/31 07:23:17;;;;;;;20.27;14.23;;;7.40;99.90;;;;;;10443861;28;20278;-69
2022/03/31 07:28:17;;;;;;;20.60;14.60;;;7.60;99.90;;;;;;10435975;28;20229;-70
2022/03/31 07:33:20;;;;;;;19.33;14.90;;;7.80;99.90;;;;;;10447918;28;20224;-68
2022/03/31 07:38:20;;;;;;;19.43;14.10;;;8.00;99.90;;;;;;10448282;28;20674;-69
2022/03/31 07:43:25;;;;;;;22.80;14.03;;;8.10;99.90;;;;;;10436274;28;20238;-70
2022/03/31 07:48:25;;;;;;;19.00;15.23;;;8.20;99.90;;;;;;10450617;28;20223;-69
2022/03/31 07:53:27;;;;;;;19.70;15.53;;;8.00;99.90;;;;;;10454518;28;20308;-69
2022/03/31 07:58:28;;;;;;;25.47;15.33;;;8.10;99.90;;;;;;10454431;28;20304;-69
2022/03/31 08:03:29;;;;;;;18.70;14.80;;;8.10;99.90;;;;;;10454826;28;20255;-69
2022/03/31 08:08:30;;;;;;;22.70;16.00;;;8.30;99.90;;;;;;10452031;28;20254;-69
2022/03/31 08:13:30;;;;;;;21.47;15.90;;;8.40;99.90;;;;;;10469157;28;20227;-70
2022/03/31 08:18:33;;;;;;;18.37;14.60;;;8.30;99.90;;;;;;10455257;28;20260;-69
2022/03/31 08:23:34;;;;;;;23.30;15.73;;;8.20;99.90;;;;;;10452838;28;20767;-70
2022/03/31 08:28:36;;;;;;;23.07;16.67;;;8.10;99.90;;;;;;10453874;28;20305;-69
2022/03/31 08:33:36;;;;;;;20.57;14.93;;;8.10;99.90;;;;;;10448057;28;20235;-69
2022/03/31 08:38:37;;;;;;;25.37;16.77;;;8.00;99.90;;;;;;10454037;28;20222;-69
2022/03/31 08:43:42;;;;;;;23.23;15.97;;;8.10;99.90;;;;;;10447090;28;20836;-69
2022/03/31 08:48:43;;;;;;;22.47;16.13;;;8.20;99.90;;;;;;10453789;28;20231;-69
2022/03/31 08:53:43;;;;;;;18.73;15.37;;;8.30;99.90;;;;;;10451095;28;20229;-68
2022/03/31 08:58:45;;;;;;;20.90;16.27;;;8.30;99.90;;;;;;10452635;28;20227;-68
2022/03/31 09:03:46;;;;;;;21.53;15.80;;;8.20;99.90;;;;;;10452609;28;20321;-68
2022/03/31 09:09:01;;;;;;;19.77;15.47;;;8.20;99.90;;;;;;10451777;28;20877;-69
2022/03/31 09:14:03;;;;;;;24.03;16.10;;;8.20;99.90;;;;;;10450684;28;20304;-68
2022/03/31 09:19:09;;;;;;;19.47;15.07;;;8.30;99.90;;;;;;10451256;28;20234;-69
2022/03/31 09:24:15;;;;;;;19.50;15.40;;;8.50;99.90;;;;;;10448853;28;20238;-69
2022/03/31 09:29:19;;;;;;;21.10;15.80;;;8.40;99.90;;;;;;10438647;28;20220;-69
2022/03/31 09:34:20;;;;;;;20.23;15.97;;;8.50;99.90;;;;;;10448778;28;20642;-69
2022/03/31 09:39:22;;;;;;;21.30;15.27;;;8.70;99.90;;;;;;10450264;28;20226;-69
2022/03/31 09:44:25;;;;;;;23.00;16.30;;;8.70;99.90;;;;;;10448515;28;20238;-69
2022/03/31 09:49:27;;;;;;;20.40;15.73;;;8.80;99.90;;;;;;10447702;28;20573;-70
2022/03/31 09:54:30;;;;;;;24.83;16.37;;;8.80;99.90;;;;;;10448815;28;20698;-70
2022/03/31 09:59:38;;;;;;;20.60;15.70;;;9.10;99.90;;;;;;10449431;28;20226;-69
2022/03/31 10:04:43;;;;;;;20.33;15.97;;;9.20;99.90;;;;;;10445178;28;20222;-69
2022/03/31 10:09:44;;;;;;;19.67;15.43;;;9.30;99.90;;;;;;10443984;28;20220;-69
2022/03/31 10:14:59;;;;;;;21.43;16.07;;;9.20;99.90;;;;;;10448898;28;20207;-69
2022/03/31 10:20:11;;;;;;;18.37;15.27;;;9.20;99.90;;;;;;10446779;28;20245;-69
2022/03/31 10:25:14;;;;;;;18.17;14.70;;;9.20;99.90;;;;;;10448191;28;20240;-68
2022/03/31 10:30:19;;;;;;;22.77;15.47;;;9.00;99.90;;;;;;10455655;28;20271;-69
2022/03/31 10:35:31;;;;;;;20.93;15.97;;;9.10;99.90;;;;;;10449183;28;20191;-69
2022/03/31 10:40:38;;;;;;;20.00;14.87;;;9.20;99.90;;;;;;10447465;28;20235;-70
2022/03/31 10:45:42;;;;;;;21.57;16.10;;;9.40;99.90;;;;;;10448087;28;20247;-69
2022/03/31 10:50:43;;;;;;;19.83;15.70;;;9.70;99.90;;;;;;10448233;28;20243;-69
2022/03/31 10:55:52;;;;;;;20.73;16.07;;;9.70;99.90;;;;;;10448166;28;20746;-69
2022/03/31 11:00:54;;;;;;;21.60;15.87;;;9.70;99.90;;;;;;10447165;28;20529;-69
2022/03/31 11:05:59;;;;;;;21.97;16.90;;;9.80;99.90;;;;;;10447803;28;20555;-70
2022/03/31 11:11:00;;;;;;;20.67;15.37;;;9.90;99.90;;;;;;10465682;28;20222;-70
2022/03/31 11:16:01;;;;;;;21.00;16.30;;;10.20;99.90;;;;;;10448058;28;20223;-69
2022/03/31 11:21:03;;;;;;;20.60;16.47;;;10.20;99.90;;;;;;10447704;28;20228;-69
2022/03/31 11:26:06;;;;;;;21.97;16.73;;;10.10;99.90;;;;;;10456216;28;20265;-70
2022/03/31 11:31:14;;;;;;;20.90;15.90;;;10.50;99.90;;;;;;10452764;28;20208;-69
2022/03/31 11:36:17;;;;;;;22.17;17.37;;;10.70;99.90;;;;;;10447465;28;20226;-70
2022/03/31 11:41:18;;;;;;;21.70;16.23;;;10.90;99.90;;;;;;10453893;28;20238;-68
2022/03/31 11:46:18;;;;;;;22.10;17.20;;;11.00;99.90;;;;;;10453491;28;20246;-69
2022/03/31 11:51:19;;;;;;;20.40;16.10;;;11.20;99.90;;;;;;10448791;28;20238;-70
2022/03/31 11:56:24;;;;;;;21.57;16.57;;;11.40;99.90;;;;;;10454755;28;20834;-70
2022/03/31 12:01:43;;;;;;;20.33;16.47;;;11.20;99.90;;;;;;10452717;28;20772;-69
2022/03/31 12:06:44;;;;;;;23.03;17.40;;;11.00;99.90;;;;;;10450299;28;20223;-70
2022/03/31 12:11:46;;;;;;;22.33;17.20;;;10.90;99.90;;;;;;10452327;28;20583;-68
2022/03/31 12:16:50;;;;;;;21.27;15.97;;;10.80;99.90;;;;;;10453305;28;20272;-69
2022/03/31 12:21:52;;;;;;;20.00;16.73;;;10.80;99.90;;;;;;10451868;28;20236;-69
2022/03/31 12:26:58;;;;;;;25.83;16.93;;;10.60;99.90;;;;;;10452948;28;20222;-69
2022/03/31 12:32:03;;;;;;;22.33;17.17;;;10.50;99.90;;;;;;10452443;28;20241;-70
2022/03/31 12:37:06;;;;;;;18.20;15.70;;;10.80;99.90;;;;;;10467423;28;20683;-70
2022/03/31 12:42:10;;;;;;;22.73;16.47;;;11.20;99.90;;;;;;10452405;28;20228;-70
2022/03/31 12:47:22;;;;;;;19.50;15.90;;;11.20;99.90;;;;;;10445305;28;20220;-70
2022/03/31 12:52:23;;;;;;;19.03;15.73;;;11.50;99.90;;;;;;10444792;28;20852;-69
2022/03/31 12:57:27;;;;;;;19.83;16.90;;;11.90;99.90;;;;;;10452042;28;20327;-69
2022/03/31 13:02:33;;;;;;;20.23;15.57;;;12.40;99.90;;;;;;10451293;28;20537;-69
2022/03/31 13:07:34;;;;;;;21.50;16.23;;;12.40;99.90;;;;;;10453162;28;20246;-70
2022/03/31 13:12:37;;;;;;;21.47;16.67;;;12.20;99.90;;;;;;10467513;28;20319;-70
2022/03/31 13:17:39;;;;;;;18.63;15.50;;;12.00;99.90;;;;;;10451567;28;20762;-70
2022/03/31 13:22:40;;;;;;;19.03;15.77;;;11.90;99.90;;;;;;10448819;28;20288;-69
2022/03/31 13:27:41;;;;;;;18.10;14.67;;;11.90;99.90;;;;;;10450713;28;20303;-69
2022/03/31 13:32:43;;;;;;;18.33;14.77;;;12.20;99.90;;;;;;10441957;28;20306;-70
2022/03/31 13:37:43;;;;;;;17.80;14.50;;;12.10;99.90;;;;;;10459267;28;20227;-70
2022/03/31 13:42:44;;;;;;;18.27;14.20;;;12.00;99.90;;;;;;10449201;28;20239;-69
2022/03/31 13:47:46;;;;;;;17.47;14.70;;;11.60;99.90;;;;;;10447815;28;20226;-70
2022/03/31 13:53:43;;;;;;;16.60;13.60;;;11.60;99.90;;;;;;10480150;28;20220;-69
2022/03/31 14:03:27;;;;;;;18.90;14.07;;;11.40;99.90;;;;;;10443448;28;20227;-69
2022/03/31 14:08:28;;;;;;;17.30;14.50;;;11.50;99.90;;;;;;10445215;28;20290;-70
2022/03/31 14:13:28;;;;;;;17.60;14.00;;;11.20;99.90;;;;;;10450464;28;20250;-69
2022/03/31 14:18:31;;;;;;;17.07;14.43;;;11.30;99.90;;;;;;10464132;28;20254;-71
2022/03/31 14:23:31;;;;;;;16.27;13.47;;;11.00;99.90;;;;;;10448495;28;20266;-68
2022/03/31 14:28:40;;;;;;;17.40;13.40;;;11.00;99.90;;;;;;10441736;28;20281;-69
2022/03/31 14:33:42;;;;;;;17.23;13.40;;;10.80;99.90;;;;;;10447725;28;20262;-69
2022/03/31 14:38:43;;;;;;;16.93;13.63;;;10.80;99.90;;;;;;10438765;28;20652;-70
2022/03/31 14:43:47;;;;;;;17.30;13.03;;;10.80;99.90;;;;;;10449311;28;20254;-71
2022/03/31 14:48:50;;;;;;;17.63;13.63;;;10.80;99.90;;;;;;10448964;28;20231;-70
2022/03/31 14:53:52;;;;;;;15.73;13.50;;;10.90;99.90;;;;;;10447442;28;20336;-70
2022/03/31 14:58:53;;;;;;;15.00;12.77;;;10.90;99.90;;;;;;10453053;28;20227;-69
2022/03/31 15:03:54;;;;;;;19.77;15.63;;;10.60;99.90;;;;;;10458133;28;20235;-70
2022/03/31 15:08:56;;;;;;;18.20;13.53;;;10.50;99.90;;;;;;10456615;28;20360;-69
2022/03/31 15:19:16;;;;;;;15.40;12.47;;;10.40;99.90;;;;;;10448162;28;20223;-69
2022/03/31 15:24:17;;;;;;;15.83;12.57;;;10.30;99.90;;;;;;10455508;28;20227;-69
2022/03/31 15:29:17;;;;;;;16.77;12.33;;;10.10;99.90;;;;;;10473297;28;20223;-70
2022/03/31 15:34:19;;;;;;;16.40;12.17;;;10.00;99.90;;;;;;10448896;28;20216;-70
2022/03/31 15:39:22;;;;;;;17.23;12.93;;;10.00;99.90;;;;;;10455197;28;20345;-69
2022/03/31 15:44:23;;;;;;;17.30;13.43;;;9.90;99.90;;;;;;10443795;28;20228;-69
2022/03/31 15:49:23;;;;;;;15.90;12.73;;;10.10;99.90;;;;;;10454222;28;20326;-70
2022/03/31 15:54:24;;;;;;;15.53;12.93;;;10.00;99.90;;;;;;10455104;28;20222;-69
2022/03/31 15:59:25;;;;;;;18.57;13.63;;;9.80;99.90;;;;;;10453449;28;20226;-70
2022/03/31 16:04:26;;;;;;;16.93;13.23;;;9.60;99.90;;;;;;10444078;28;20236;-70
2022/03/31 16:09:27;;;;;;;17.77;12.50;;;9.60;99.90;;;;;;10452211;28;20230;-69
2022/03/31 16:14:29;;;;;;;16.40;13.07;;;9.50;99.90;;;;;;10445118;28;20219;-69
2022/03/31 16:19:30;;;;;;;16.83;12.30;;;9.40;99.90;;;;;;10454243;28;20640;-68
2022/03/31 16:24:30;;;;;;;16.17;13.53;;;9.40;99.90;;;;;;10441800;28;20248;-67
2022/03/31 16:29:31;;;;;;;17.03;13.47;;;9.40;99.90;;;;;;10438926;28;20271;-68
2022/03/31 16:34:31;;;;;;;16.97;12.57;;;9.30;99.90;;;;;;10453013;28;20275;-70
2022/03/31 16:39:32;;;;;;;18.93;13.03;;;9.30;99.90;;;;;;10440207;28;20214;-69
2022/03/31 16:44:33;;;;;;;15.47;12.27;;;9.30;99.90;;;;;;10458415;28;20919;-68
2022/03/31 16:49:37;;;;;;;17.67;14.17;;;9.30;99.90;;;;;;10451068;28;20231;-72
2022/03/31 16:54:41;;;;;;;18.67;13.93;;;9.20;99.90;;;;;;10452732;28;20218;-69
2022/03/31 16:59:41;;;;;;;20.63;15.83;;;9.20;99.90;;;;;;10448761;28;20225;-70
2022/03/31 17:04:42;;;;;;;20.23;15.30;;;9.10;99.90;;;;;;10443027;28;20724;-70
2022/03/31 17:09:43;;;;;;;21.37;15.60;;;9.00;99.90;;;;;;10452945;28;20223;-68
2022/03/31 17:14:46;;;;;;;20.50;16.27;;;9.00;99.90;;;;;;10439247;28;20235;-69
2022/03/31 17:19:48;;;;;;;18.53;15.77;;;9.00;99.90;;;;;;10439146;28;20212;-69
2022/03/31 17:24:49;;;;;;;20.10;15.20;;;8.90;99.90;;;;;;10439039;28;20227;-68
2022/03/31 17:29:49;;;;;;;19.07;15.37;;;8.80;99.90;;;;;;10443977;28;20223;-67
2022/03/31 17:34:50;;;;;;;19.53;16.23;;;8.80;99.90;;;;;;10443608;28;20214;-67
2022/03/31 17:39:51;;;;;;;21.53;15.57;;;8.70;99.90;;;;;;10440139;28;20223;-69
2022/03/31 17:44:52;;;;;;;19.60;15.20;;;8.70;99.90;;;;;;10438715;28;20339;-67
2022/03/31 17:49:53;;;;;;;17.83;14.53;;;8.60;99.90;;;;;;10439566;28;20704;-68
2022/03/31 17:54:55;;;;;;;20.17;15.43;;;8.60;99.90;;;;;;10437956;28;20215;-69
2022/03/31 17:59:59;;;;;;;20.13;16.10;;;8.50;99.90;;;;;;10436757;28;20215;-69
2022/03/31 18:05:00;;;;;;;22.20;16.30;;;8.50;99.90;;;;;;10447760;28;20221;-69
2022/03/31 18:10:00;;;;;;;21.53;17.40;;;8.50;99.90;;;;;;10443996;28;20226;-68
2022/03/31 18:15:02;;;;;;;21.07;16.50;;;8.40;99.90;;;;;;10447975;28;20214;-69
2022/03/31 18:20:05;;;;;;;19.47;16.30;;;8.40;99.90;;;;;;10449914;28;20681;-70
2022/03/31 18:25:09;;;;;;;20.90;16.50;;;8.20;99.90;;;;;;10450812;28;20235;-71
2022/03/31 18:35:35;;;;;;;20.77;16.33;;;8.10;99.90;;;;;;10444792;28;20318;-70
2022/03/31 18:40:35;;;;;;;19.73;16.00;;;8.10;99.90;;;;;;10426281;28;20226;-73
2022/03/31 18:45:40;;;;;;;20.27;15.00;;;8.00;99.90;;;;;;10447628;28;20506;-73
2022/03/31 18:50:42;;;;;;;18.40;15.07;;;7.90;99.90;;;;;;10451308;28;20383;-71
2022/03/31 18:55:45;;;;;;;17.23;14.50;;;7.90;99.90;;;;;;10446176;28;20518;-71
2022/03/31 19:00:49;;;;;;;18.10;14.57;;;7.80;99.90;;;;;;10447706;28;20231;-70
2022/03/31 19:05:51;;;;;;;18.93;15.43;;;7.70;99.90;;;;;;10438619;28;20234;-69
2022/03/31 19:10:52;;;;;;;23.50;17.83;;;7.70;99.90;;;;;;10447725;28;20278;-70
2022/03/31 19:15:53;;;;;;;21.57;17.73;;;7.70;99.90;;;;;;10448304;28;20238;-71
2022/03/31 19:20:53;;;;;;;22.03;18.07;;;7.70;99.90;;;;;;10444257;28;20236;-71
2022/03/31 19:25:54;;;;;;;23.93;17.57;;;7.60;99.90;;;;;;10454159;28;20231;-70
2022/03/31 19:30:55;;;;;;;20.23;17.40;;;7.40;99.90;;;;;;10447755;28;20264;-70
2022/03/31 19:35:56;;;;;;;17.63;15.53;;;7.20;99.90;;;;;;10481334;28;20230;-71
2022/03/31 19:40:57;;;;;;;18.03;14.63;;;7.20;99.90;;;;;;10445335;28;20343;-70
2022/03/31 19:45:57;;;;;;;17.27;14.37;;;7.10;99.90;;;;;;10451450;28;20713;-71
2022/03/31 19:51:00;;;;;;;18.30;14.93;;;7.10;99.90;;;;;;10454683;28;20298;-70
2022/03/31 19:56:01;;;;;;;18.57;15.63;;;7.00;99.90;;;;;;10453801;28;20238;-69
2022/03/31 20:01:03;;;;;;;18.77;15.47;;;7.00;99.90;;;;;;10453306;28;20259;-70
2022/03/31 20:06:04;;;;;;;17.13;14.73;;;7.00;99.90;;;;;;10453513;28;20224;-69
2022/03/31 20:11:06;;;;;;;17.40;14.33;;;7.00;99.90;;;;;;10453892;28;20220;-69
2022/03/31 20:16:07;;;;;;;18.87;15.67;;;7.00;99.90;;;;;;10454102;28;20226;-70
2022/03/31 20:21:08;;;;;;;17.50;15.17;;;6.90;99.90;;;;;;10449047;28;21069;-70
2022/03/31 20:26:11;;;;;;;16.47;13.97;;;6.80;99.90;;;;;;10450620;28;20323;-70
2022/03/31 20:31:12;;;;;;;16.60;14.03;;;6.80;99.90;;;;;;10452084;28;20238;-70
2022/03/31 20:36:13;;;;;;;16.03;14.30;;;6.70;99.90;;;;;;10454019;28;20223;-69
2022/03/31 20:41:14;;;;;;;17.17;15.13;;;6.70;99.90;;;;;;10452364;28;20637;-69
2022/03/31 20:46:15;;;;;;;17.80;14.43;;;6.80;99.90;;;;;;10459943;28;20217;-70
2022/03/31 20:51:15;;;;;;;15.50;13.60;;;6.70;99.90;;;;;;10462667;28;20219;-70
2022/03/31 20:56:18;;;;;;;15.93;14.23;;;6.70;99.90;;;;;;10451397;28;20303;-70
2022/03/31 21:01:19;;;;;;;17.27;15.27;;;6.60;99.90;;;;;;10451795;28;20246;-69
2022/03/31 21:06:20;;;;;;;17.57;15.63;;;6.60;99.90;;;;;;10452750;28;20701;-70
2022/03/31 21:11:21;;;;;;;17.30;14.70;;;6.60;99.90;;;;;;10449489;28;20226;-69
2022/03/31 21:16:21;;;;;;;17.33;15.53;;;6.70;99.90;;;;;;10451534;28;20220;-69
2022/03/31 21:21:23;;;;;;;17.37;15.40;;;6.70;99.90;;;;;;10451538;28;20756;-69
2022/03/31 21:26:23;;;;;;;18.93;16.90;;;6.60;99.90;;;;;;10440419;28;20216;-69
2022/03/31 21:31:24;;;;;;;20.47;18.30;;;6.50;99.90;;;;;;10452086;28;20624;-68
2022/03/31 21:36:25;;;;;;;21.70;19.40;;;6.40;99.90;;;;;;10463361;28;20962;-67
2022/03/31 21:41:28;;;;;;;22.37;19.97;;;6.30;99.90;;;;;;10449665;28;20242;-68
2022/03/31 21:46:29;;;;;;;21.90;19.60;;;6.20;99.90;;;;;;10450213;28;20270;-67
2022/03/31 21:51:29;;;;;;;21.90;19.60;;;6.10;99.90;;;;;;10450484;28;20247;-68
2022/03/31 21:56:33;;;;;;;23.10;19.77;;;6.10;99.90;;;;;;10448974;28;20250;-69
2022/03/31 22:01:35;;;;;;;24.30;21.70;;;6.00;99.90;;;;;;10448586;28;20323;-69
2022/03/31 22:06:35;;;;;;;24.20;20.53;;;6.10;99.90;;;;;;10444242;28;20315;-69
2022/03/31 22:11:36;;;;;;;24.10;21.50;;;6.10;99.90;;;;;;10483712;28;20303;-69
2022/03/31 22:16:40;;;;;;;23.03;20.57;;;6.00;99.90;;;;;;10449788;28;20299;-68
2022/03/31 22:21:44;;;;;;;22.43;20.13;;;6.10;99.90;;;;;;10446128;28;20228;-68
2022/03/31 22:26:45;;;;;;;22.00;19.77;;;6.10;99.90;;;;;;10446558;28;20314;-68
2022/03/31 22:31:49;;;;;;;23.80;20.97;;;6.00;99.90;;;;;;10445168;28;20231;-68
2022/03/31 22:36:51;;;;;;;23.43;20.93;;;5.90;99.90;;;;;;10450138;28;20224;-68
2022/03/31 22:41:53;;;;;;;22.97;20.67;;;5.90;99.90;;;;;;10449306;28;20711;-68
2022/03/31 22:46:56;;;;;;;22.50;20.30;;;5.90;99.90;;;;;;10440125;28;20246;-70
2022/03/31 22:51:56;;;;;;;23.03;20.63;;;6.00;99.90;;;;;;10450009;28;20729;-68
2022/03/31 22:56:58;;;;;;;23.93;21.43;;;6.00;99.90;;;;;;10446898;28;20214;-69
2022/03/31 23:01:59;;;;;;;23.80;21.30;;;6.00;99.90;;;;;;10448763;28;20216;-69
2022/03/31 23:07:00;;;;;;;22.77;20.47;;;5.90;99.90;;;;;;10448418;28;20679;-68
2022/03/31 23:12:02;;;;;;;22.70;20.40;;;6.00;99.90;;;;;;10449384;28;20596;-69
2022/03/31 23:17:03;;;;;;;22.93;20.53;;;6.00;99.90;;;;;;10447843;28;20227;-68
2022/03/31 23:22:04;;;;;;;21.43;19.33;;;6.00;99.90;;;;;;10450586;28;20234;-69
2022/03/31 23:27:04;;;;;;;21.43;19.27;;;5.90;99.90;;;;;;10452101;28;20211;-69
2022/03/31 23:32:05;;;;;;;22.23;20.03;;;5.90;99.90;;;;;;10457459;28;20218;-70
2022/03/31 23:37:06;;;;;;;22.10;19.90;;;5.80;99.90;;;;;;10456724;28;20215;-68
2022/03/31 23:42:07;;;;;;;22.33;20.13;;;5.80;99.90;;;;;;10457172;28;20662;-69
2022/03/31 23:47:08;;;;;;;19.80;17.87;;;5.80;99.90;;;;;;10456056;28;20238;-68
2022/03/31 23:52:08;;;;;;;21.17;19.03;;;5.80;99.90;;;;;;10455264;28;20645;-67
2022/03/31 23:57:09;;;;;;;21.07;18.93;;;5.80;99.90;;;;;;10456580;28;20226;-68
